Time;durP1;ratioP1;P1;durP2;ratioP2;P2;SDS_P1;SDS_P2;PMS_P1;PMS_P2;Temp;Humidity;BMP_temperature;BMP_pressure;BME280_temperature;BME280_humidity;BME280_pressure;Samples;Min_cycle;Max_cycle;Signal;HPM_P1;HPM_P2
2023/12/31 00:01:57;;;;;;;9.93;3.90;;;8.70;99.90;;;;;;5096180;28;20052;-85
2023/12/31 00:04:23;;;;;;;9.03;3.80;;;8.70;99.90;;;;;;5095810;28;20048;-84
2023/12/31 00:06:49;;;;;;;7.47;4.00;;;8.70;99.90;;;;;;5096049;28;20097;-85
2023/12/31 00:09:14;;;;;;;6.77;3.93;;;8.70;99.90;;;;;;5077741;28;20135;-84
2023/12/31 00:11:40;;;;;;;7.73;3.43;;;8.70;99.90;;;;;;5096126;28;20048;-85
2023/12/31 00:14:06;;;;;;;7.13;3.80;;;8.70;99.90;;;;;;5095228;28;20040;-85
2023/12/31 00:16:33;;;;;;;8.80;3.93;;;8.70;99.90;;;;;;5095433;28;20091;-85
2023/12/31 00:18:58;;;;;;;8.17;3.40;;;8.80;99.90;;;;;;5096157;28;20062;-85
2023/12/31 00:21:24;;;;;;;7.10;3.57;;;8.80;99.90;;;;;;5095571;28;20706;-85
2023/12/31 00:23:50;;;;;;;8.47;3.43;;;8.80;99.90;;;;;;5095607;28;20493;-84
2023/12/31 00:26:16;;;;;;;9.67;3.73;;;8.80;99.90;;;;;;5094730;28;20063;-84
2023/12/31 00:28:41;;;;;;;7.13;3.97;;;8.80;99.90;;;;;;5094241;28;20067;-85
2023/12/31 00:31:07;;;;;;;7.60;3.33;;;8.70;99.90;;;;;;5095231;28;20036;-85
2023/12/31 00:33:33;;;;;;;8.33;4.13;;;8.70;99.90;;;;;;5093680;28;20040;-85
2023/12/31 00:35:59;;;;;;;6.13;3.40;;;8.70;99.90;;;;;;5075330;28;20056;-84
2023/12/31 00:38:24;;;;;;;8.23;3.13;;;8.60;99.90;;;;;;5093375;28;20474;-84
2023/12/31 00:40:50;;;;;;;8.37;4.20;;;8.60;99.90;;;;;;5092735;28;20044;-84
2023/12/31 00:43:16;;;;;;;8.30;3.40;;;8.60;99.90;;;;;;5092501;28;20051;-84
2023/12/31 00:45:41;;;;;;;8.03;3.50;;;8.60;99.90;;;;;;5093937;28;20180;-84
2023/12/31 00:48:07;;;;;;;5.90;3.60;;;8.60;99.90;;;;;;5092711;28;20102;-84
2023/12/31 00:50:34;;;;;;;6.80;3.47;;;8.60;99.90;;;;;;5094938;28;20040;-85
2023/12/31 00:53:01;;;;;;;8.47;3.70;;;8.60;99.90;;;;;;5095266;28;20558;-84
2023/12/31 00:55:26;;;;;;;6.63;3.57;;;8.60;99.90;;;;;;5095228;28;20286;-85
2023/12/31 00:57:52;;;;;;;7.13;3.20;;;8.60;99.90;;;;;;5094470;28;20365;-86
2023/12/31 01:00:18;;;;;;;6.70;3.43;;;8.60;99.90;;;;;;5093568;28;20048;-84
2023/12/31 01:02:44;;;;;;;6.43;3.20;;;8.60;99.90;;;;;;5095246;28;20117;-84
2023/12/31 01:05:10;;;;;;;6.03;3.20;;;8.60;99.90;;;;;;5093850;28;20306;-84
2023/12/31 01:07:35;;;;;;;6.23;3.20;;;8.60;99.90;;;;;;5094094;28;20044;-84
2023/12/31 01:10:01;;;;;;;7.20;3.13;;;8.60;99.90;;;;;;5095088;28;20572;-84
2023/12/31 01:12:27;;;;;;;8.50;3.60;;;8.60;99.90;;;;;;5093784;28;20054;-83
2023/12/31 01:14:53;;;;;;;6.20;3.20;;;8.60;99.90;;;;;;5094867;28;20083;-84
2023/12/31 01:17:18;;;;;;;5.03;2.93;;;8.60;99.90;;;;;;5094672;28;20048;-83
2023/12/31 01:19:44;;;;;;;6.83;3.13;;;8.60;99.90;;;;;;5095013;28;20093;-84
2023/12/31 01:22:10;;;;;;;5.87;2.80;;;8.60;99.90;;;;;;5094490;28;20409;-84
2023/12/31 01:24:35;;;;;;;8.80;3.13;;;8.60;99.90;;;;;;5094506;28;20048;-83
2023/12/31 01:27:01;;;;;;;5.90;3.10;;;8.60;99.90;;;;;;5094985;28;20044;-84
2023/12/31 01:29:27;;;;;;;6.77;3.20;;;8.60;99.90;;;;;;5094622;28;20498;-83
2023/12/31 01:31:53;;;;;;;6.07;2.53;;;8.60;99.90;;;;;;5094596;28;20048;-84
2023/12/31 01:34:18;;;;;;;5.33;2.60;;;8.60;99.90;;;;;;5093074;28;20508;-83
2023/12/31 01:36:44;;;;;;;6.33;2.70;;;8.60;99.90;;;;;;5094593;28;20059;-83
2023/12/31 01:39:10;;;;;;;8.17;2.97;;;8.60;99.90;;;;;;5093327;28;20130;-83
2023/12/31 01:41:36;;;;;;;8.93;2.70;;;8.60;99.90;;;;;;5093279;28;20461;-83
2023/12/31 01:44:03;;;;;;;9.30;2.60;;;8.60;99.90;;;;;;5094078;28;20044;-84
2023/12/31 01:46:31;;;;;;;5.40;2.43;;;8.60;99.90;;;;;;5076169;28;20063;-83
2023/12/31 01:48:58;;;;;;;5.50;2.57;;;8.60;99.90;;;;;;5094246;28;20387;-83
2023/12/31 01:51:25;;;;;;;5.40;2.27;;;8.60;99.90;;;;;;5093782;28;20738;-84
2023/12/31 01:53:51;;;;;;;6.93;2.47;;;8.60;99.90;;;;;;5092974;28;20807;-83
2023/12/31 01:56:19;;;;;;;4.77;2.17;;;8.50;99.90;;;;;;5093227;28;20282;-84
2023/12/31 01:58:46;;;;;;;4.80;2.57;;;8.50;99.90;;;;;;5094183;28;20397;-84
2023/12/31 02:01:12;;;;;;;4.37;2.10;;;8.50;99.90;;;;;;5092567;28;20373;-84
2023/12/31 02:03:37;;;;;;;5.20;2.00;;;8.50;99.90;;;;;;5093582;28;20369;-83
2023/12/31 02:06:03;;;;;;;7.97;2.47;;;8.50;99.90;;;;;;5093623;28;20080;-84
2023/12/31 02:08:29;;;;;;;5.23;1.97;;;8.50;99.90;;;;;;5093531;28;20047;-84
2023/12/31 02:10:55;;;;;;;5.87;2.17;;;8.50;99.90;;;;;;5093751;28;20047;-84
2023/12/31 02:13:21;;;;;;;5.87;2.23;;;8.50;99.90;;;;;;5093609;28;20058;-85
2023/12/31 02:15:47;;;;;;;5.80;2.30;;;8.50;99.90;;;;;;5075675;28;20365;-86
2023/12/31 02:18:12;;;;;;;4.87;2.20;;;8.50;99.90;;;;;;5075025;28;20047;-85
2023/12/31 02:20:38;;;;;;;6.13;2.00;;;8.50;99.90;;;;;;5093370;28;20058;-85
2023/12/31 02:23:05;;;;;;;7.40;3.17;;;8.50;99.90;;;;;;5092194;28;20423;-85
2023/12/31 02:25:37;;;;;;;5.03;2.10;;;8.50;99.90;;;;;;5075363;28;20043;-86
2023/12/31 02:28:03;;;;;;;6.07;3.00;;;8.50;99.90;;;;;;5092766;28;20338;-86
2023/12/31 02:30:28;;;;;;;6.33;2.30;;;8.40;99.90;;;;;;5093201;28;20373;-85
2023/12/31 02:32:54;;;;;;;4.00;1.70;;;8.40;99.90;;;;;;5092931;28;20051;-84
2023/12/31 02:35:20;;;;;;;4.10;1.80;;;8.40;99.90;;;;;;5091079;28;20055;-84
2023/12/31 02:37:46;;;;;;;5.37;1.93;;;8.40;99.90;;;;;;5073400;28;20039;-84
2023/12/31 02:40:11;;;;;;;6.17;2.10;;;8.40;99.90;;;;;;5091595;28;20437;-84
2023/12/31 02:42:37;;;;;;;4.90;2.30;;;8.40;99.90;;;;;;5091280;28;20128;-83
2023/12/31 02:45:03;;;;;;;5.47;2.33;;;8.30;99.90;;;;;;5090183;28;20132;-84
2023/12/31 02:47:29;;;;;;;5.17;1.80;;;8.30;99.90;;;;;;5091558;28;20048;-85
2023/12/31 02:49:54;;;;;;;3.90;1.70;;;8.30;99.90;;;;;;5092834;28;20289;-85
2023/12/31 02:52:20;;;;;;;4.87;1.73;;;8.30;99.90;;;;;;5093371;28;20048;-85
2023/12/31 02:54:46;;;;;;;5.33;1.87;;;8.30;99.90;;;;;;5091824;28;20074;-85
2023/12/31 02:57:12;;;;;;;3.83;1.63;;;8.30;99.90;;;;;;5092039;28;20058;-86
2023/12/31 02:59:38;;;;;;;4.27;1.60;;;8.30;99.90;;;;;;5091758;28;20409;-86
2023/12/31 03:02:04;;;;;;;3.73;1.80;;;8.30;99.90;;;;;;5093116;28;20312;-85
2023/12/31 03:04:30;;;;;;;4.63;1.90;;;8.30;99.90;;;;;;5092581;28;20123;-85
2023/12/31 03:06:55;;;;;;;4.93;1.70;;;8.30;99.90;;;;;;5075305;28;20368;-86
2023/12/31 03:09:21;;;;;;;4.80;1.60;;;8.30;99.90;;;;;;5092034;28;20051;-86
2023/12/31 03:11:48;;;;;;;3.60;1.40;;;8.30;99.90;;;;;;5091944;28;20130;-86
2023/12/31 03:14:14;;;;;;;5.57;1.53;;;8.20;99.90;;;;;;5091938;28;20052;-86
2023/12/31 03:16:47;;;;;;;2.77;1.40;;;8.30;99.90;;;;;;5075042;28;20640;-87
2023/12/31 03:19:13;;;;;;;2.53;1.50;;;8.30;99.90;;;;;;5093221;28;20335;-87
2023/12/31 03:21:40;;;;;;;4.17;1.80;;;8.30;99.90;;;;;;5092874;28;20282;-86
2023/12/31 03:24:08;;;;;;;2.43;1.43;;;8.30;99.90;;;;;;5092923;28;20278;-87
2023/12/31 03:26:34;;;;;;;5.90;1.50;;;8.30;99.90;;;;;;5092625;28;20278;-86
2023/12/31 03:29:00;;;;;;;3.17;1.40;;;8.30;99.90;;;;;;5093492;28;20289;-87
2023/12/31 03:31:26;;;;;;;3.40;1.50;;;8.30;99.90;;;;;;5095405;28;20787;-86
2023/12/31 03:33:52;;;;;;;2.87;1.33;;;8.30;99.90;;;;;;5096700;28;20289;-87
2023/12/31 03:36:20;;;;;;;2.53;1.10;;;8.30;99.90;;;;;;5097202;28;20056;-87
2023/12/31 03:38:47;;;;;;;4.33;1.50;;;8.40;99.90;;;;;;5096893;28;20282;-86
2023/12/31 03:41:13;;;;;;;3.57;1.40;;;8.40;99.90;;;;;;5096948;28;20282;-87
2023/12/31 03:43:39;;;;;;;3.40;1.40;;;8.40;99.90;;;;;;5096869;28;20797;-87
2023/12/31 03:46:04;;;;;;;3.70;1.50;;;8.40;99.90;;;;;;5061675;28;20113;-87
2023/12/31 03:48:30;;;;;;;3.33;1.40;;;8.40;99.90;;;;;;5096713;28;20055;-83
2023/12/31 03:50:56;;;;;;;3.33;1.40;;;8.40;99.90;;;;;;5096218;28;20051;-86
2023/12/31 03:53:21;;;;;;;2.90;1.53;;;8.40;99.90;;;;;;5095636;28;20131;-86
2023/12/31 03:55:47;;;;;;;3.60;1.53;;;8.40;99.90;;;;;;5096554;28;20452;-85
2023/12/31 03:58:13;;;;;;;5.40;2.00;;;8.50;99.90;;;;;;5078693;28;20537;-85
2023/12/31 04:00:38;;;;;;;5.27;1.67;;;8.50;99.90;;;;;;5096043;28;20052;-86
2023/12/31 04:03:04;;;;;;;3.20;1.63;;;8.50;99.90;;;;;;5097944;28;20040;-85
2023/12/31 04:05:30;;;;;;;4.73;1.40;;;8.50;99.90;;;;;;5095299;28;20485;-85
2023/12/31 04:07:56;;;;;;;4.97;1.60;;;8.50;99.90;;;;;;5094853;28;20044;-85
2023/12/31 04:10:22;;;;;;;3.87;1.50;;;8.50;99.90;;;;;;5096206;28;20330;-86
2023/12/31 04:12:48;;;;;;;6.03;2.40;;;8.40;99.90;;;;;;5094755;28;20040;-86
2023/12/31 04:15:13;;;;;;;4.07;1.83;;;8.50;99.90;;;;;;5096030;28;20048;-84
2023/12/31 04:17:39;;;;;;;5.30;1.77;;;8.50;99.90;;;;;;5095633;28;20048;-84
2023/12/31 04:20:06;;;;;;;4.23;2.10;;;8.50;99.90;;;;;;5078483;28;20394;-84
2023/12/31 04:22:32;;;;;;;4.93;2.30;;;8.50;99.90;;;;;;5095929;28;20047;-84
2023/12/31 04:24:57;;;;;;;3.80;2.00;;;8.50;99.90;;;;;;5095550;28;20389;-83
2023/12/31 04:27:23;;;;;;;3.70;1.77;;;8.50;99.90;;;;;;5095901;28;20047;-84
2023/12/31 04:29:49;;;;;;;5.30;2.07;;;8.50;99.90;;;;;;5094635;28;20176;-84
2023/12/31 04:32:15;;;;;;;5.00;1.83;;;8.50;99.90;;;;;;5095678;28;20278;-85
2023/12/31 04:34:41;;;;;;;4.17;1.90;;;8.50;99.90;;;;;;5095776;28;20367;-84
2023/12/31 04:37:06;;;;;;;5.63;2.40;;;8.50;99.90;;;;;;5095698;28;20063;-85
2023/12/31 04:39:32;;;;;;;5.93;2.20;;;8.50;99.90;;;;;;5095614;28;20043;-85
2023/12/31 04:41:58;;;;;;;4.73;2.00;;;8.50;99.90;;;;;;5094213;28;20370;-84
2023/12/31 04:44:23;;;;;;;4.43;1.93;;;8.50;99.90;;;;;;5095243;28;20055;-83
2023/12/31 04:46:49;;;;;;;4.90;2.13;;;8.50;99.90;;;;;;5094084;28;20067;-84
2023/12/31 04:49:16;;;;;;;5.47;2.13;;;8.50;99.90;;;;;;5094124;28;20089;-84
2023/12/31 04:51:42;;;;;;;6.07;2.23;;;8.50;99.90;;;;;;5094664;28;20047;-84
2023/12/31 04:54:08;;;;;;;4.53;2.27;;;8.50;99.90;;;;;;5094360;28;20358;-86
2023/12/31 04:56:34;;;;;;;5.33;2.63;;;8.50;99.90;;;;;;5094370;28;20293;-85
2023/12/31 04:59:00;;;;;;;4.00;2.00;;;8.50;99.90;;;;;;5094735;28;20775;-85
2023/12/31 05:01:35;;;;;;;4.50;2.20;;;8.50;99.90;;;;;;5095275;28;20836;-86
2023/12/31 05:04:01;;;;;;;5.40;2.40;;;8.50;99.90;;;;;;5093871;28;20335;-85
2023/12/31 05:06:27;;;;;;;5.67;2.40;;;8.50;99.90;;;;;;5094213;28;20048;-86
2023/12/31 05:08:53;;;;;;;5.07;2.27;;;8.50;99.90;;;;;;5094646;28;20682;-86
2023/12/31 05:11:18;;;;;;;4.60;2.37;;;8.50;99.90;;;;;;5093832;28;20130;-85
2023/12/31 05:13:44;;;;;;;5.70;2.40;;;8.50;99.90;;;;;;5093510;28;20052;-85
2023/12/31 05:16:14;;;;;;;4.80;2.33;;;8.50;99.90;;;;;;5094846;28;20085;-86
2023/12/31 05:18:46;;;;;;;6.17;2.10;;;8.50;99.90;;;;;;5093718;28;20126;-81
2023/12/31 05:21:12;;;;;;;4.70;1.80;;;8.50;99.90;;;;;;5093678;28;20296;-86
2023/12/31 05:23:41;;;;;;;4.43;1.80;;;8.50;99.90;;;;;;5094245;28;20282;-86
2023/12/31 05:26:07;;;;;;;6.00;2.03;;;8.50;99.90;;;;;;5093333;28;20348;-86
2023/12/31 05:28:32;;;;;;;5.00;2.20;;;8.50;99.90;;;;;;5094702;28;20286;-85
2023/12/31 05:30:58;;;;;;;5.43;2.43;;;8.50;99.90;;;;;;5093454;28;20096;-86
2023/12/31 05:33:24;;;;;;;6.67;2.40;;;8.50;99.90;;;;;;5094570;28;20044;-85
2023/12/31 05:35:50;;;;;;;3.93;1.93;;;8.50;99.90;;;;;;5093900;28;20120;-85
2023/12/31 05:38:16;;;;;;;4.60;1.90;;;8.50;99.90;;;;;;5076027;28;20044;-85
2023/12/31 05:40:42;;;;;;;5.67;1.90;;;8.50;99.90;;;;;;5094150;28;20044;-86
2023/12/31 05:43:08;;;;;;;3.97;1.77;;;8.60;99.90;;;;;;5094477;28;20286;-84
2023/12/31 05:45:34;;;;;;;4.53;1.90;;;8.60;99.90;;;;;;5094376;28;20306;-84
2023/12/31 05:48:00;;;;;;;4.20;1.80;;;8.60;99.90;;;;;;5094000;28;20293;-83
2023/12/31 05:50:25;;;;;;;3.77;2.10;;;8.50;99.90;;;;;;5094194;28;20048;-84
2023/12/31 05:52:52;;;;;;;4.80;2.13;;;8.50;99.90;;;;;;5093603;28;20040;-83
2023/12/31 05:55:18;;;;;;;4.47;2.00;;;8.50;99.90;;;;;;5093719;28;20543;-84
2023/12/31 05:57:44;;;;;;;5.40;2.17;;;8.60;99.90;;;;;;5092926;28;20298;-83
2023/12/31 06:00:10;;;;;;;4.80;2.00;;;8.60;99.90;;;;;;5091247;28;20080;-84
2023/12/31 06:02:37;;;;;;;7.17;2.57;;;8.60;99.90;;;;;;5091865;28;20086;-84
2023/12/31 06:05:03;;;;;;;6.77;2.00;;;8.60;99.90;;;;;;5093573;28;20298;-84
2023/12/31 06:07:29;;;;;;;5.60;2.33;;;8.60;99.90;;;;;;5093693;28;20351;-85
2023/12/31 06:09:55;;;;;;;5.97;2.40;;;8.60;99.90;;;;;;5092638;28;20282;-84
2023/12/31 06:12:20;;;;;;;5.37;2.90;;;8.60;99.90;;;;;;5093602;28;20447;-85
2023/12/31 06:14:46;;;;;;;6.70;2.60;;;8.60;99.90;;;;;;5092859;28;20489;-80
2023/12/31 06:17:12;;;;;;;4.17;2.37;;;8.60;99.90;;;;;;5093787;28;20044;-85
2023/12/31 06:19:37;;;;;;;6.10;2.40;;;8.60;99.90;;;;;;5093676;28;20131;-85
2023/12/31 06:22:03;;;;;;;4.43;2.37;;;8.70;99.90;;;;;;5093392;28;20048;-84
2023/12/31 06:24:29;;;;;;;4.93;2.70;;;8.60;99.90;;;;;;5092394;28;20055;-84
2023/12/31 06:26:54;;;;;;;5.00;2.73;;;8.70;99.90;;;;;;5093516;28;20090;-84
2023/12/31 06:29:20;;;;;;;6.70;2.80;;;8.70;99.90;;;;;;5093673;28;20516;-85
2023/12/31 06:31:47;;;;;;;5.57;3.23;;;8.70;99.90;;;;;;5093090;28;20044;-85
2023/12/31 06:34:12;;;;;;;5.07;2.87;;;8.70;99.90;;;;;;5093308;28;20063;-86
2023/12/31 06:36:38;;;;;;;6.83;3.20;;;8.60;99.90;;;;;;5092086;28;20775;-85
2023/12/31 06:39:04;;;;;;;5.73;2.70;;;8.60;99.90;;;;;;5093128;28;20040;-85
2023/12/31 06:41:30;;;;;;;7.47;3.13;;;8.60;99.90;;;;;;5092202;28;20051;-86
2023/12/31 06:43:55;;;;;;;4.63;2.70;;;8.60;99.90;;;;;;5092665;28;20087;-85
2023/12/31 06:46:21;;;;;;;6.57;2.77;;;8.60;99.90;;;;;;5093388;28;20044;-85
2023/12/31 06:48:47;;;;;;;7.57;3.37;;;8.60;99.90;;;;;;5093253;28;20503;-86
2023/12/31 06:51:12;;;;;;;7.70;2.90;;;8.60;99.90;;;;;;5093038;28;20048;-86
2023/12/31 06:53:38;;;;;;;5.53;2.77;;;8.60;99.90;;;;;;5092252;28;20558;-86
2023/12/31 06:56:05;;;;;;;5.90;2.80;;;8.70;99.90;;;;;;5092885;28;20074;-87
2023/12/31 06:58:31;;;;;;;6.90;2.77;;;8.60;99.90;;;;;;5093558;28;20054;-87
2023/12/31 07:00:57;;;;;;;4.90;2.50;;;8.70;99.90;;;;;;5093152;28;20278;-87
2023/12/31 07:03:22;;;;;;;6.43;2.47;;;8.70;99.90;;;;;;5093569;28;20048;-88
2023/12/31 07:05:48;;;;;;;5.37;2.23;;;8.70;99.90;;;;;;5096985;28;20051;-85
2023/12/31 07:08:14;;;;;;;6.17;2.40;;;8.70;99.90;;;;;;5097121;28;20401;-85
2023/12/31 07:10:40;;;;;;;5.57;2.27;;;8.70;99.90;;;;;;5096182;28;20177;-86
2023/12/31 07:13:05;;;;;;;5.13;2.20;;;8.70;99.90;;;;;;5096207;28;20361;-86
2023/12/31 07:15:33;;;;;;;5.03;2.20;;;8.70;99.90;;;;;;5097345;28;20051;-86
2023/12/31 07:17:58;;;;;;;5.40;2.50;;;8.80;99.90;;;;;;5095924;28;20059;-87
2023/12/31 07:20:24;;;;;;;5.10;2.37;;;8.70;99.90;;;;;;5097252;28;20282;-86
2023/12/31 07:22:50;;;;;;;6.30;2.87;;;8.80;99.90;;;;;;5096977;28;20046;-85
2023/12/31 07:25:15;;;;;;;5.93;2.63;;;8.80;99.90;;;;;;5096748;28;20079;-86
2023/12/31 07:27:41;;;;;;;5.90;2.57;;;8.80;99.90;;;;;;5097008;28;20044;-87
2023/12/31 07:30:07;;;;;;;4.23;2.10;;;8.80;99.90;;;;;;5095696;28;20093;-86
2023/12/31 07:32:33;;;;;;;4.43;2.20;;;8.80;99.90;;;;;;5096066;28;20430;-86
2023/12/31 07:34:59;;;;;;;5.70;2.13;;;8.80;99.90;;;;;;5096266;28;20364;-85
2023/12/31 07:37:24;;;;;;;4.97;2.27;;;8.90;99.90;;;;;;5095685;28;20054;-85
2023/12/31 07:39:50;;;;;;;4.90;2.30;;;8.80;99.90;;;;;;5095481;28;20044;-87
2023/12/31 07:42:16;;;;;;;5.30;2.57;;;8.80;99.90;;;;;;5095689;28;20051;-87
2023/12/31 07:44:41;;;;;;;6.23;2.20;;;8.90;99.90;;;;;;5096657;28;20470;-86
2023/12/31 07:47:08;;;;;;;6.80;2.40;;;8.90;99.90;;;;;;5096415;28;20048;-85
2023/12/31 07:49:34;;;;;;;5.87;2.90;;;8.90;99.90;;;;;;5096431;28;20051;-86
2023/12/31 07:51:59;;;;;;;5.33;2.27;;;8.90;99.90;;;;;;5096349;28;20270;-85
2023/12/31 07:54:25;;;;;;;5.27;2.73;;;8.90;99.90;;;;;;5096356;28;20047;-85
2023/12/31 07:56:52;;;;;;;4.87;2.57;;;8.90;99.90;;;;;;5095541;28;20048;-86
2023/12/31 07:59:18;;;;;;;6.23;2.60;;;8.90;99.90;;;;;;5096223;28;20048;-86
2023/12/31 08:01:44;;;;;;;5.33;2.40;;;8.90;99.90;;;;;;5096320;28;20747;-86
2023/12/31 08:04:09;;;;;;;5.23;2.93;;;8.90;99.90;;;;;;5095344;28;20415;-86
2023/12/31 08:06:36;;;;;;;4.40;2.33;;;8.90;99.90;;;;;;5096073;28;20127;-86
2023/12/31 08:09:02;;;;;;;5.03;2.40;;;8.90;99.90;;;;;;5095779;28;20047;-86
2023/12/31 08:11:28;;;;;;;4.77;2.50;;;8.90;99.90;;;;;;5095548;28;20306;-86
2023/12/31 08:13:54;;;;;;;6.00;2.60;;;8.90;99.90;;;;;;5096227;28;20383;-86
2023/12/31 08:16:20;;;;;;;4.30;2.40;;;8.90;99.90;;;;;;5095866;28;20083;-86
2023/12/31 08:18:46;;;;;;;4.37;2.20;;;8.90;99.90;;;;;;5096244;28;20149;-85
2023/12/31 08:21:12;;;;;;;5.40;2.50;;;8.80;99.90;;;;;;5094770;28;20477;-85
2023/12/31 08:23:37;;;;;;;4.80;2.40;;;8.90;99.90;;;;;;5095793;28;20485;-85
2023/12/31 08:26:03;;;;;;;4.20;2.40;;;8.80;99.90;;;;;;5095712;28;20298;-80
2023/12/31 08:28:30;;;;;;;5.90;2.87;;;8.80;99.90;;;;;;5095782;28;20048;-84
2023/12/31 08:30:55;;;;;;;4.53;2.27;;;8.80;99.90;;;;;;5095768;28;20456;-83
2023/12/31 08:33:21;;;;;;;6.43;2.77;;;8.80;99.90;;;;;;5077624;28;20286;-84
2023/12/31 08:35:48;;;;;;;4.73;2.57;;;8.90;99.90;;;;;;5094104;28;20490;-84
2023/12/31 08:38:14;;;;;;;4.73;2.40;;;8.90;99.90;;;;;;5095323;28;20409;-87
2023/12/31 08:40:39;;;;;;;5.67;2.67;;;8.90;99.90;;;;;;5095892;28;20278;-88
2023/12/31 08:43:05;;;;;;;6.13;2.93;;;9.00;99.90;;;;;;5094471;28;20474;-87
2023/12/31 08:45:32;;;;;;;5.13;3.13;;;9.00;99.90;;;;;;5081208;28;20093;-83
2023/12/31 08:47:58;;;;;;;5.27;3.03;;;9.00;99.90;;;;;;5095470;28;20048;-83
2023/12/31 08:50:24;;;;;;;5.63;2.77;;;9.00;99.90;;;;;;5095141;28;20290;-84
2023/12/31 08:52:50;;;;;;;4.90;2.53;;;9.10;99.90;;;;;;5094402;28;20290;-84
2023/12/31 08:55:16;;;;;;;4.10;2.33;;;9.10;99.90;;;;;;5095291;28;20040;-84
2023/12/31 08:57:50;;;;;;;5.30;2.60;;;9.10;99.90;;;;;;5095323;28;20409;-83
2023/12/31 09:00:19;;;;;;;4.13;2.40;;;9.10;99.90;;;;;;5095057;28;20040;-82
2023/12/31 09:02:46;;;;;;;4.80;2.77;;;9.10;99.90;;;;;;5095059;28;20325;-84
2023/12/31 09:05:12;;;;;;;5.53;2.97;;;9.20;99.90;;;;;;5076673;28;20355;-83
2023/12/31 09:07:39;;;;;;;5.60;2.50;;;9.20;99.90;;;;;;5093971;28;20361;-85
2023/12/31 09:10:06;;;;;;;4.90;2.60;;;9.20;99.90;;;;;;5095137;28;20044;-85
2023/12/31 09:12:32;;;;;;;7.73;3.20;;;9.20;99.90;;;;;;5093947;28;20794;-85
2023/12/31 09:14:58;;;;;;;5.60;3.13;;;9.20;99.90;;;;;;5093944;28;20270;-85
2023/12/31 09:17:24;;;;;;;8.00;2.90;;;9.10;99.90;;;;;;5095006;28;20278;-82
2023/12/31 09:19:50;;;;;;;5.23;2.80;;;9.10;99.90;;;;;;5093681;28;20361;-87
2023/12/31 09:22:16;;;;;;;5.23;2.83;;;9.10;99.90;;;;;;5077077;28;20044;-83
2023/12/31 09:24:41;;;;;;;6.83;2.80;;;9.10;99.90;;;;;;5094697;28;20047;-83
2023/12/31 09:27:10;;;;;;;7.20;3.40;;;9.10;99.90;;;;;;5094309;28;20130;-83
2023/12/31 09:29:36;;;;;;;6.20;2.97;;;9.10;99.90;;;;;;5093658;28;20468;-84
2023/12/31 09:32:02;;;;;;;5.90;3.17;;;9.10;99.90;;;;;;5095021;28;20306;-84
2023/12/31 09:34:28;;;;;;;5.87;3.13;;;9.10;99.90;;;;;;5094462;28;20044;-83
2023/12/31 09:36:53;;;;;;;7.63;3.00;;;9.10;99.90;;;;;;5076308;28;20700;-80
2023/12/31 09:39:19;;;;;;;6.23;3.30;;;9.00;99.90;;;;;;5094276;28;20044;-80
2023/12/31 09:41:49;;;;;;;5.63;3.37;;;9.00;99.90;;;;;;5093470;28;20083;-79
2023/12/31 09:44:18;;;;;;;6.17;3.70;;;9.00;99.90;;;;;;5094188;28;20122;-80
2023/12/31 09:47:06;;;;;;;6.37;4.00;;;9.00;99.90;;;;;;5094253;28;20314;-81
2023/12/31 09:49:36;;;;;;;6.90;3.67;;;8.90;99.90;;;;;;5094298;28;20274;-82
2023/12/31 09:52:07;;;;;;;6.83;4.00;;;8.90;99.90;;;;;;5094327;28;20282;-89
2023/12/31 09:54:34;;;;;;;7.13;3.67;;;8.90;99.90;;;;;;5094237;28;20748;-86
2023/12/31 09:57:01;;;;;;;6.43;3.60;;;8.90;99.90;;;;;;5094018;28;20282;-81
2023/12/31 09:59:28;;;;;;;6.93;4.00;;;8.90;99.90;;;;;;5093898;28;20342;-84
2023/12/31 10:01:58;;;;;;;7.20;4.57;;;8.90;99.90;;;;;;5094281;28;20347;-85
2023/12/31 10:04:23;;;;;;;7.30;4.03;;;8.90;99.90;;;;;;5094054;28;20309;-86
2023/12/31 10:06:51;;;;;;;7.27;4.67;;;8.90;99.90;;;;;;5093973;28;20374;-86
2023/12/31 10:09:18;;;;;;;9.00;3.50;;;8.90;99.90;;;;;;5094797;28;20274;-86
2023/12/31 10:11:45;;;;;;;5.97;3.90;;;8.90;99.90;;;;;;5093717;28;20335;-82
2023/12/31 10:14:12;;;;;;;5.40;3.50;;;8.90;99.90;;;;;;5093850;28;20282;-81
2023/12/31 10:16:43;;;;;;;8.70;4.70;;;9.00;99.90;;;;;;5093673;28;20640;-82
2023/12/31 10:19:11;;;;;;;7.00;4.67;;;9.00;99.90;;;;;;5092650;28;20292;-80
2023/12/31 10:21:37;;;;;;;7.77;4.67;;;9.00;99.90;;;;;;5092164;28;20772;-79
2023/12/31 10:24:03;;;;;;;9.77;6.10;;;9.10;99.90;;;;;;5093396;28;20798;-80
2023/12/31 10:26:30;;;;;;;12.83;8.17;;;9.10;99.90;;;;;;5093171;28;20305;-80
2023/12/31 10:28:55;;;;;;;8.33;4.70;;;9.10;99.90;;;;;;5093685;28;20036;-84
2023/12/31 10:31:25;;;;;;;8.30;4.57;;;9.10;99.90;;;;;;5092498;28;20293;-80
2023/12/31 10:33:51;;;;;;;6.73;4.00;;;9.10;99.90;;;;;;5093249;28;20423;-80
2023/12/31 10:36:22;;;;;;;6.07;3.87;;;9.10;99.90;;;;;;5093112;28;20286;-81
2023/12/31 10:38:52;;;;;;;6.47;3.60;;;9.10;99.90;;;;;;5089365;28;20362;-80
2023/12/31 10:41:22;;;;;;;6.37;3.57;;;9.20;99.90;;;;;;5092731;28;20372;-84
2023/12/31 10:43:48;;;;;;;6.07;3.67;;;9.20;99.90;;;;;;5090376;28;20323;-76
2023/12/31 10:46:17;;;;;;;5.60;3.10;;;9.30;99.90;;;;;;5092763;28;20294;-83
2023/12/31 10:49:09;;;;;;;7.50;3.93;;;9.30;99.90;;;;;;5092492;28;20709;-80
2023/12/31 10:51:41;;;;;;;6.67;3.73;;;9.30;99.90;;;;;;5084677;28;20274;-78
2023/12/31 10:54:08;;;;;;;9.73;4.53;;;9.30;99.90;;;;;;5092839;28;20357;-78
2023/12/31 10:56:35;;;;;;;7.27;4.63;;;9.30;99.90;;;;;;5092646;28;20281;-82
2023/12/31 10:59:02;;;;;;;7.57;4.77;;;9.20;99.90;;;;;;5092698;28;20770;-78
2023/12/31 11:01:28;;;;;;;6.10;3.73;;;9.20;99.90;;;;;;5089862;28;20278;-79
2023/12/31 11:03:56;;;;;;;5.73;2.80;;;9.10;99.90;;;;;;5093081;28;20278;-81
2023/12/31 11:06:23;;;;;;;6.30;2.50;;;9.00;99.90;;;;;;5092677;28;20678;-79
2023/12/31 11:08:49;;;;;;;4.00;2.03;;;8.90;99.90;;;;;;5093101;28;20282;-79
2023/12/31 11:11:16;;;;;;;5.07;1.57;;;8.80;99.90;;;;;;5093156;28;20274;-79
2023/12/31 11:13:49;;;;;;;2.93;1.70;;;8.70;99.90;;;;;;5092844;28;20309;-81
2023/12/31 11:16:44;;;;;;;4.50;1.60;;;8.60;99.90;;;;;;5093107;28;20799;-77
2023/12/31 11:19:47;;;;;;;5.40;1.50;;;8.50;99.90;;;;;;5093141;28;20282;-77
2023/12/31 11:22:37;;;;;;;7.70;1.40;;;8.40;99.90;;;;;;5093034;28;20294;-77
2023/12/31 11:25:04;;;;;;;3.83;1.30;;;8.40;99.90;;;;;;5092808;28;20298;-79
2023/12/31 11:27:33;;;;;;;5.90;1.50;;;8.30;99.90;;;;;;5092797;28;20342;-78
2023/12/31 11:30:00;;;;;;;2.80;1.47;;;8.30;99.90;;;;;;5092911;28;20278;-78
2023/12/31 11:32:27;;;;;;;2.93;1.70;;;8.30;99.90;;;;;;5091495;28;20282;-77
2023/12/31 11:34:53;;;;;;;4.10;1.50;;;8.20;99.90;;;;;;5092616;28;20353;-75
2023/12/31 11:37:20;;;;;;;5.60;1.70;;;8.20;99.90;;;;;;5092761;28;20294;-75
2023/12/31 11:39:48;;;;;;;5.17;1.80;;;8.20;99.90;;;;;;5092401;28;20288;-79
2023/12/31 11:42:16;;;;;;;5.63;2.30;;;8.20;99.90;;;;;;5092907;28;20289;-75
2023/12/31 11:44:46;;;;;;;7.17;2.73;;;8.20;99.90;;;;;;5092555;28;20294;-76
2023/12/31 11:47:15;;;;;;;8.17;4.20;;;8.20;99.90;;;;;;5092707;28;20278;-76
2023/12/31 11:50:14;;;;;;;9.50;4.00;;;8.20;99.90;;;;;;5092563;28;20768;-75
2023/12/31 11:52:41;;;;;;;5.80;2.80;;;8.30;99.90;;;;;;5096532;28;20293;-75
2023/12/31 11:55:11;;;;;;;5.60;2.50;;;8.30;99.90;;;;;;5096546;28;20340;-76
2023/12/31 11:57:38;;;;;;;5.50;1.83;;;8.30;99.90;;;;;;5096223;28;20280;-75
2023/12/31 12:00:08;;;;;;;2.13;1.10;;;8.40;99.90;;;;;;5096403;28;20320;-75
2023/12/31 12:02:34;;;;;;;5.10;2.00;;;8.50;99.90;;;;;;5095990;28;20669;-79
2023/12/31 12:05:00;;;;;;;4.10;1.80;;;8.60;99.90;;;;;;5095650;28;20401;-79
2023/12/31 12:07:26;;;;;;;5.70;1.67;;;8.60;99.90;;;;;;5096388;28;20797;-78
2023/12/31 12:09:52;;;;;;;5.30;1.80;;;8.70;99.90;;;;;;5090840;28;20320;-80
2023/12/31 12:12:18;;;;;;;4.40;1.43;;;8.80;99.90;;;;;;5095144;28;20457;-80
2023/12/31 12:14:45;;;;;;;4.03;1.43;;;8.90;99.90;;;;;;5094642;28;20040;-80
2023/12/31 12:17:10;;;;;;;4.00;1.10;;;8.90;99.90;;;;;;5094558;28;20284;-78
2023/12/31 12:19:36;;;;;;;3.43;1.30;;;8.90;99.90;;;;;;5093471;28;20282;-78
2023/12/31 12:22:03;;;;;;;3.03;1.20;;;8.90;99.90;;;;;;5095104;28;20442;-79
2023/12/31 12:24:29;;;;;;;3.77;1.40;;;8.90;99.90;;;;;;5094774;28;20044;-79
2023/12/31 12:26:57;;;;;;;3.03;1.47;;;8.90;99.90;;;;;;5094824;28;20639;-80
2023/12/31 12:29:25;;;;;;;3.33;1.40;;;8.90;99.90;;;;;;5094192;28;20278;-80
2023/12/31 12:31:50;;;;;;;4.97;1.80;;;8.90;99.90;;;;;;5094201;28;20778;-79
2023/12/31 12:34:18;;;;;;;5.50;2.33;;;8.80;99.90;;;;;;5094675;28;20290;-83
2023/12/31 12:36:46;;;;;;;3.87;1.87;;;8.80;99.90;;;;;;5093150;28;20066;-83
2023/12/31 12:39:22;;;;;;;3.60;1.50;;;8.90;99.90;;;;;;5092551;28;20302;-80
2023/12/31 12:41:49;;;;;;;5.70;1.67;;;8.90;99.90;;;;;;5094545;28;20274;-80
2023/12/31 12:44:19;;;;;;;3.83;1.33;;;8.90;99.90;;;;;;5092736;28;20278;-79
2023/12/31 12:46:47;;;;;;;4.10;1.60;;;8.90;99.90;;;;;;5094410;28;20286;-79
2023/12/31 12:49:13;;;;;;;4.47;1.83;;;8.90;99.90;;;;;;5093422;28;20288;-76
2023/12/31 12:51:40;;;;;;;3.80;1.50;;;8.80;99.90;;;;;;5093514;28;20285;-79
2023/12/31 12:54:07;;;;;;;4.10;1.60;;;8.80;99.90;;;;;;5093959;28;20335;-79
2023/12/31 12:56:33;;;;;;;4.00;1.80;;;8.80;99.90;;;;;;5093473;28;20278;-80